createdAt,value
2017-12-29T07:31:23.381Z,299
2017-12-29T07:32:30.576Z,293
2017-12-29T07:33:37.762Z,292
2017-12-29T07:34:44.409Z,292
2017-12-29T07:35:51.798Z,292
2017-12-29T07:36:58.985Z,291
2017-12-29T07:38:06.189Z,291
2017-12-29T07:39:13.111Z,291
2017-12-29T07:40:20.323Z,291
2017-12-29T07:41:27.500Z,291
2017-12-29T07:42:34.416Z,291
2017-12-29T07:43:41.353Z,291
2017-12-29T07:44:48.557Z,291
2017-12-29T07:45:55.765Z,291
2017-12-29T07:47:02.948Z,292
2017-12-29T07:48:10.133Z,292
2017-12-29T07:49:17.320Z,292
2017-12-29T07:50:24.257Z,291
2017-12-29T07:51:31.446Z,291
2017-12-29T07:52:38.633Z,291
2017-12-29T07:53:45.822Z,292
2017-12-29T07:54:53.021Z,291
2017-12-29T07:56:00.211Z,291
2017-12-29T07:57:07.395Z,291
2017-12-29T07:58:14.313Z,292
2017-12-29T07:59:21.502Z,292
2017-12-29T08:00:28.693Z,292
2017-12-29T08:01:35.889Z,291
2017-12-29T08:02:42.809Z,291
2017-12-29T08:03:49.992Z,291
2017-12-29T08:04:56.909Z,290
2017-12-29T08:06:04.097Z,290
2017-12-29T08:07:11.299Z,290
2017-12-29T08:08:18.525Z,289
2017-12-29T08:09:25.707Z,289
2017-12-29T08:10:32.898Z,289
2017-12-29T08:11:40.088Z,289
2017-12-29T08:12:47.290Z,289
2017-12-29T08:13:54.488Z,289
2017-12-29T08:15:01.673Z,288
2017-12-29T08:16:08.871Z,288
2017-12-29T08:17:16.077Z,289
2017-12-29T08:18:23.269Z,289
2017-12-29T08:19:30.461Z,289
2017-12-29T08:20:37.672Z,289
2017-12-29T08:21:44.862Z,289
2017-12-29T08:22:51.781Z,289
2017-12-29T08:23:58.999Z,289
2017-12-29T08:25:05.915Z,289
2017-12-29T08:26:13.103Z,289
2017-12-29T08:27:20.291Z,289
2017-12-29T08:28:27.473Z,288
2017-12-29T08:29:34.663Z,289
2017-12-29T08:30:41.609Z,289
2017-12-29T08:31:48.527Z,289
2017-12-29T08:32:55.721Z,289
2017-12-29T08:34:02.915Z,289
2017-12-29T08:35:10.138Z,288
2017-12-29T08:36:17.329Z,289
2017-12-29T08:37:24.523Z,289
2017-12-29T08:38:31.711Z,289
2017-12-29T08:39:38.900Z,288
2017-12-29T08:40:45.836Z,288
2017-12-29T08:41:52.755Z,288
2017-12-29T08:42:59.941Z,287
2017-12-29T08:44:07.133Z,287
2017-12-29T08:45:14.321Z,287
2017-12-29T08:46:21.510Z,287
2017-12-29T08:47:28.426Z,286
2017-12-29T08:48:35.621Z,287
2017-12-29T08:49:42.819Z,286
2017-12-29T08:50:49.741Z,286
2017-12-29T08:51:56.927Z,286
2017-12-29T08:53:04.122Z,285
2017-12-29T08:54:11.327Z,285
2017-12-29T08:55:18.517Z,285
2017-12-29T08:56:25.428Z,285
2017-12-29T08:57:32.616Z,284
2017-12-29T08:58:39.542Z,284
2017-12-29T08:59:46.724Z,284
2017-12-29T09:00:53.921Z,285
2017-12-29T09:02:00.841Z,285
2017-12-29T09:03:08.034Z,286
2017-12-29T09:04:15.224Z,285
2017-12-29T09:05:22.412Z,285
2017-12-29T09:06:29.603Z,285
2017-12-29T09:07:36.252Z,284
2017-12-29T09:08:43.441Z,284
2017-12-29T09:09:50.629Z,284
2017-12-29T09:10:58.457Z,284
2017-12-29T09:12:05.650Z,284
2017-12-29T09:13:12.841Z,284
2017-12-29T09:14:19.748Z,284
2017-12-29T09:15:26.938Z,285
2017-12-29T09:16:33.851Z,285
2017-12-29T09:17:41.047Z,285
2017-12-29T09:18:47.970Z,285
2017-12-29T09:19:55.160Z,284
2017-12-29T09:21:02.350Z,284
2017-12-29T09:22:09.258Z,283
2017-12-29T09:23:16.450Z,282
2017-12-29T09:24:23.644Z,282
2017-12-29T09:25:30.833Z,282
2017-12-29T09:26:38.020Z,281
2017-12-29T09:27:45.206Z,281
2017-12-29T09:28:51.846Z,280
2017-12-29T09:29:59.033Z,280
2017-12-29T09:31:06.230Z,280
2017-12-29T09:32:13.421Z,279
2017-12-29T09:33:20.767Z,279
2017-12-29T09:34:27.965Z,279
2017-12-29T09:35:35.144Z,279
2017-12-29T09:36:42.070Z,279
2017-12-29T09:37:49.945Z,278
2017-12-29T09:38:57.132Z,278
2017-12-29T09:40:04.052Z,278
2017-12-29T09:41:11.240Z,278
2017-12-29T09:42:18.147Z,279
2017-12-29T09:43:25.062Z,280
2017-12-29T09:44:32.248Z,282
2017-12-29T09:45:39.432Z,283
2017-12-29T09:46:46.626Z,284
2017-12-29T09:47:53.809Z,284
2017-12-29T09:49:00.997Z,284
2017-12-29T09:50:08.224Z,283
2017-12-29T09:51:15.134Z,283
2017-12-29T09:52:22.325Z,282
2017-12-29T09:53:29.508Z,282
2017-12-29T09:54:36.695Z,281
2017-12-29T09:55:43.886Z,280
2017-12-29T09:56:51.073Z,280
2017-12-29T09:57:58.266Z,280
2017-12-29T09:59:05.458Z,281
2017-12-29T10:00:12.365Z,282
2017-12-29T10:01:19.553Z,282
2017-12-29T10:02:26.735Z,282
2017-12-29T10:03:33.928Z,281
2017-12-29T10:04:41.116Z,280
2017-12-29T10:05:48.353Z,279
2017-12-29T10:06:55.571Z,279
2017-12-29T10:08:02.762Z,279
2017-12-29T10:09:09.986Z,279
2017-12-29T10:10:17.176Z,276
2017-12-29T10:11:24.370Z,279
2017-12-29T10:12:31.555Z,279
2017-12-29T10:13:38.746Z,280
2017-12-29T10:14:45.939Z,279
2017-12-29T10:15:53.128Z,280
2017-12-29T10:17:00.321Z,280
2017-12-29T10:18:07.507Z,280
2017-12-29T10:19:14.871Z,280
2017-12-29T10:20:22.058Z,279
2017-12-29T10:21:29.248Z,280
2017-12-29T10:22:36.431Z,280
2017-12-29T10:23:43.075Z,280
2017-12-29T10:24:50.267Z,280
2017-12-29T10:25:57.457Z,280
2017-12-29T10:27:04.654Z,279
2017-12-29T10:28:11.849Z,279
2017-12-29T10:29:19.037Z,280
2017-12-29T10:30:26.226Z,280
2017-12-29T10:31:33.417Z,280
2017-12-29T10:32:40.608Z,279
2017-12-29T10:33:47.805Z,278
2017-12-29T10:34:54.719Z,277
2017-12-29T10:36:01.905Z,277
2017-12-29T10:37:09.097Z,277
2017-12-29T10:38:15.736Z,276
2017-12-29T10:39:22.649Z,274
2017-12-29T10:40:29.838Z,274
2017-12-29T10:41:37.030Z,274
2017-12-29T10:42:44.215Z,273
2017-12-29T10:43:51.411Z,273
2017-12-29T10:44:58.067Z,272
2017-12-29T10:46:04.985Z,272
2017-12-29T10:47:12.688Z,272
2017-12-29T10:48:19.881Z,273
2017-12-29T10:49:26.524Z,272
2017-12-29T10:50:33.724Z,271
2017-12-29T10:51:40.646Z,271
2017-12-29T10:52:47.555Z,271
2017-12-29T10:53:54.737Z,271
2017-12-29T10:55:01.392Z,271
2017-12-29T10:56:08.596Z,272
2017-12-29T10:57:15.784Z,272
2017-12-29T10:58:23.000Z,272
2017-12-29T10:59:30.217Z,274
2017-12-29T11:00:37.397Z,273
2017-12-29T11:01:44.839Z,272
2017-12-29T11:02:52.034Z,272
2017-12-29T11:03:58.951Z,275
2017-12-29T11:05:06.143Z,276
2017-12-29T11:06:13.333Z,276
2017-12-29T11:07:20.236Z,275
2017-12-29T11:08:27.150Z,279
2017-12-29T11:09:34.347Z,281
2017-12-29T11:10:41.537Z,282
2017-12-29T11:11:48.722Z,282
2017-12-29T11:12:55.642Z,282
2017-12-29T11:14:02.837Z,282
2017-12-29T11:15:10.033Z,281
2017-12-29T11:16:17.214Z,280
2017-12-29T11:17:24.412Z,275
2017-12-29T11:18:31.607Z,272
2017-12-29T11:19:38.796Z,274
2017-12-29T11:20:45.984Z,278
2017-12-29T11:21:53.172Z,279
2017-12-29T11:23:00.373Z,278
2017-12-29T11:24:07.572Z,278
2017-12-29T11:25:14.772Z,277
2017-12-29T11:26:21.685Z,279
2017-12-29T11:27:28.916Z,277
2017-12-29T11:28:36.110Z,277
2017-12-29T11:29:43.299Z,278
2017-12-29T11:30:50.486Z,278
2017-12-29T11:31:57.807Z,277
2017-12-29T11:33:04.764Z,274
2017-12-29T11:34:11.955Z,268
2017-12-29T11:35:18.877Z,266
2017-12-29T11:36:26.062Z,266
2017-12-29T11:37:33.251Z,272
2017-12-29T11:38:40.443Z,272
2017-12-29T11:39:47.361Z,271
2017-12-29T11:40:54.758Z,268
2017-12-29T11:42:01.965Z,265
2017-12-29T11:43:09.152Z,262
2017-12-29T11:44:16.075Z,268
2017-12-29T11:45:23.272Z,269
2017-12-29T11:46:30.471Z,267
2017-12-29T11:47:37.662Z,266
2017-12-29T11:48:44.851Z,266
2017-12-29T11:49:52.048Z,265
2017-12-29T11:50:59.242Z,268
2017-12-29T11:52:06.432Z,274
2017-12-29T11:53:13.345Z,278
2017-12-29T11:54:20.536Z,280
2017-12-29T11:55:27.746Z,280
2017-12-29T11:56:34.938Z,279
2017-12-29T11:57:41.584Z,278
2017-12-29T11:58:48.496Z,276
2017-12-29T11:59:55.683Z,274
2017-12-29T12:01:02.890Z,276
2017-12-29T12:02:10.075Z,278
2017-12-29T12:03:17.264Z,278
2017-12-29T12:04:24.453Z,275
2017-12-29T12:05:31.645Z,269
2017-12-29T12:06:38.841Z,273
2017-12-29T12:07:45.758Z,270
2017-12-29T12:08:53.106Z,270
2017-12-29T12:10:00.301Z,269
2017-12-29T12:11:07.490Z,272
2017-12-29T12:12:14.407Z,270
2017-12-29T12:13:21.600Z,268
2017-12-29T12:14:28.788Z,267
2017-12-29T12:15:35.982Z,265
2017-12-29T12:16:43.169Z,268
2017-12-29T12:17:50.364Z,270
2017-12-29T12:18:57.556Z,275
2017-12-29T12:20:04.751Z,278
2017-12-29T12:21:11.935Z,278
2017-12-29T12:22:18.584Z,278
2017-12-29T12:23:25.774Z,278
2017-12-29T12:24:32.967Z,278
2017-12-29T12:25:40.161Z,271
2017-12-29T12:26:47.387Z,273
2017-12-29T12:27:54.582Z,276
2017-12-29T12:29:01.769Z,271
2017-12-29T12:30:08.724Z,269
2017-12-29T12:31:15.905Z,268
2017-12-29T12:32:23.094Z,275
2017-12-29T12:33:30.283Z,277
2017-12-29T12:34:37.477Z,278
2017-12-29T12:35:44.395Z,279
2017-12-29T12:36:51.584Z,279
2017-12-29T12:37:58.773Z,280
2017-12-29T12:39:05.970Z,280
2017-12-29T12:40:13.162Z,280
2017-12-29T12:41:20.361Z,280
2017-12-29T12:42:27.587Z,280
2017-12-29T12:43:34.500Z,279
2017-12-29T12:44:41.704Z,279
2017-12-29T12:45:48.901Z,279
2017-12-29T12:46:56.098Z,278
2017-12-29T12:48:03.017Z,278
2017-12-29T12:49:10.458Z,280
2017-12-29T12:50:17.848Z,281
2017-12-29T12:51:25.040Z,281
2017-12-29T12:52:31.957Z,282
2017-12-29T12:53:39.147Z,281
2017-12-29T12:54:46.340Z,280
2017-12-29T12:55:53.530Z,281
2017-12-29T12:57:00.724Z,280
2017-12-29T12:58:07.920Z,271
2017-12-29T12:59:15.502Z,271
2017-12-29T13:00:22.693Z,276
2017-12-29T13:01:29.887Z,278
2017-12-29T13:02:37.078Z,279
2017-12-29T13:03:44.268Z,279
2017-12-29T13:04:51.457Z,277
2017-12-29T13:05:58.398Z,278
2017-12-29T13:07:05.594Z,278
2017-12-29T13:08:12.781Z,278
2017-12-29T13:09:19.969Z,280
2017-12-29T13:10:27.173Z,280
2017-12-29T13:11:34.427Z,280
2017-12-29T13:12:41.631Z,279
2017-12-29T13:13:48.834Z,279
2017-12-29T13:14:56.026Z,279
2017-12-29T13:16:03.233Z,280
2017-12-29T13:17:10.665Z,280
2017-12-29T13:18:17.856Z,280
2017-12-29T13:19:25.078Z,280
2017-12-29T13:20:32.258Z,280
2017-12-29T13:21:39.466Z,280
2017-12-29T13:22:46.391Z,280
2017-12-29T13:23:53.315Z,280
2017-12-29T13:25:00.506Z,280
2017-12-29T13:26:07.424Z,280
2017-12-29T13:27:14.623Z,280
2017-12-29T13:28:22.016Z,280
2017-12-29T13:29:29.208Z,280
2017-12-29T13:30:36.555Z,280
2017-12-29T13:31:43.751Z,281
2017-12-29T13:32:50.961Z,281
2017-12-29T13:33:58.157Z,281
2017-12-29T13:35:05.340Z,281
2017-12-29T13:36:12.533Z,281
2017-12-29T13:37:19.724Z,281
2017-12-29T13:38:26.920Z,281
2017-12-29T13:39:34.111Z,281
2017-12-29T13:40:41.301Z,280
2017-12-29T13:41:48.500Z,280
2017-12-29T13:42:55.690Z,281
2017-12-29T13:44:02.888Z,281
2017-12-29T13:45:09.811Z,280
2017-12-29T13:46:17.004Z,281
2017-12-29T13:47:23.921Z,281
2017-12-29T13:48:31.140Z,281
2017-12-29T13:49:38.337Z,281
2017-12-29T13:50:45.531Z,282
2017-12-29T13:51:52.998Z,281
2017-12-29T13:53:01.142Z,282
2017-12-29T13:54:08.352Z,281
2017-12-29T13:55:15.549Z,281
2017-12-29T13:56:22.751Z,280
2017-12-29T13:57:29.940Z,280
2017-12-29T13:58:37.127Z,280
2017-12-29T13:59:44.317Z,280
2017-12-29T14:00:51.506Z,280
2017-12-29T14:01:58.701Z,281
2017-12-29T14:03:05.887Z,281
2017-12-29T14:04:13.076Z,281
2017-12-29T14:05:20.263Z,281
2017-12-29T14:06:27.455Z,281
2017-12-29T14:07:34.372Z,282
2017-12-29T14:08:41.560Z,282
2017-12-29T14:09:48.753Z,282
2017-12-29T14:10:55.940Z,282
2017-12-29T14:12:03.125Z,282
2017-12-29T14:13:10.071Z,283
2017-12-29T14:14:16.992Z,283
2017-12-29T14:15:23.911Z,283
2017-12-29T14:16:31.102Z,283
2017-12-29T14:17:38.299Z,282
2017-12-29T14:18:45.218Z,283
2017-12-29T14:19:52.462Z,283
2017-12-29T14:20:59.675Z,283
2017-12-29T14:22:06.884Z,283
2017-12-29T14:23:14.079Z,283
2017-12-29T14:24:21.275Z,283
2017-12-29T14:25:28.464Z,283
2017-12-29T14:26:35.660Z,283
2017-12-29T14:27:42.853Z,283
2017-12-29T14:28:49.771Z,283
2017-12-29T14:29:56.953Z,283
2017-12-29T14:31:03.869Z,283
2017-12-29T14:32:11.062Z,283
2017-12-29T14:33:18.255Z,283
2017-12-29T14:34:25.451Z,283
2017-12-29T14:35:32.356Z,283
2017-12-29T14:36:39.552Z,283
2017-12-29T14:37:46.748Z,283
2017-12-29T14:38:53.942Z,283
2017-12-29T14:40:00.863Z,283
2017-12-29T14:41:08.082Z,283
2017-12-29T14:42:15.277Z,283
2017-12-29T14:43:22.192Z,284
2017-12-29T14:44:29.111Z,283
2017-12-29T14:45:36.303Z,284
2017-12-29T14:46:43.495Z,284
2017-12-29T14:47:50.719Z,284
2017-12-29T14:48:57.369Z,285
2017-12-29T14:50:04.569Z,285
2017-12-29T14:51:11.764Z,285
2017-12-29T14:52:18.958Z,285
2017-12-29T14:53:26.149Z,285
2017-12-29T14:54:33.335Z,284
2017-12-29T14:55:40.529Z,284
2017-12-29T14:56:47.725Z,285
2017-12-29T14:57:54.637Z,284
2017-12-29T14:59:01.829Z,285
2017-12-29T15:00:08.748Z,285
2017-12-29T15:01:15.941Z,285
2017-12-29T15:02:23.144Z,286
2017-12-29T15:03:30.060Z,286
2017-12-29T15:04:37.254Z,286
2017-12-29T15:05:44.447Z,286
2017-12-29T15:06:51.644Z,285
2017-12-29T15:07:58.562Z,285
2017-12-29T15:09:06.462Z,285
2017-12-29T15:10:13.651Z,286
2017-12-29T15:11:20.611Z,285
2017-12-29T15:12:27.803Z,285
2017-12-29T15:13:34.994Z,285
2017-12-29T15:14:41.911Z,284
2017-12-29T15:15:49.098Z,285
2017-12-29T15:16:56.292Z,285
2017-12-29T15:18:03.492Z,285
2017-12-29T15:19:10.682Z,285
2017-12-29T15:20:17.869Z,286
2017-12-29T15:21:25.060Z,286
2017-12-29T15:22:32.253Z,287
2017-12-29T15:23:39.174Z,287
2017-12-29T15:24:46.357Z,288
2017-12-29T15:25:53.548Z,287
2017-12-29T15:27:00.743Z,288
2017-12-29T15:28:07.953Z,287
2017-12-29T15:29:15.142Z,287
2017-12-29T15:30:22.335Z,287
2017-12-29T15:31:29.536Z,287
2017-12-29T15:32:36.727Z,287
2017-12-29T15:33:43.920Z,287
2017-12-29T15:34:51.141Z,287
2017-12-29T15:35:58.328Z,287
2017-12-29T15:37:05.540Z,287
2017-12-29T15:38:12.741Z,287
2017-12-29T15:39:19.933Z,287
2017-12-29T15:40:26.852Z,287
2017-12-29T15:41:34.047Z,287
2017-12-29T15:42:41.293Z,287
2017-12-29T15:43:48.464Z,287
2017-12-29T15:44:55.651Z,287
2017-12-29T15:46:03.046Z,287
2017-12-29T15:47:10.457Z,287
2017-12-29T15:48:17.647Z,287
2017-12-29T15:49:24.522Z,287
2017-12-29T15:50:31.709Z,287
2017-12-29T15:51:38.926Z,287
2017-12-29T15:52:46.118Z,287
2017-12-29T15:54:07.959Z,287
2017-12-29T15:55:15.145Z,287
2017-12-29T15:56:22.337Z,286
2017-12-29T15:57:29.525Z,286
2017-12-29T15:58:36.724Z,286
2017-12-29T15:59:43.917Z,286
2017-12-29T16:00:51.108Z,286
2017-12-29T16:01:58.301Z,286
2017-12-29T16:03:05.514Z,286
2017-12-29T16:04:12.709Z,286
2017-12-29T16:05:19.923Z,286
2017-12-29T16:06:27.110Z,286
2017-12-29T16:07:34.296Z,286
2017-12-29T16:08:41.484Z,286
2017-12-29T16:09:48.680Z,286
2017-12-29T16:10:55.596Z,286
2017-12-29T16:12:02.796Z,286
2017-12-29T16:13:09.990Z,286
2017-12-29T16:14:17.188Z,286
